Agua Caliente, CA

2:17 AM PDT on April 27, 2015 (GMT -0700)
MesoWest | | Change Station
CLOSE
Current Station
Personal Weather Station
Location: Warner Springs, CA
Elevation: 2970 ft
Nearby Weather Stations

Elev 2970 ft 33.32 °N, 116.68 °W | Updated 30 minutes ago

Clear
Clear
44 °F
Feels Like 42 °F
N
4
Wind Variable Wind from NE
Gusts 4.0 mph

Today
High -- | Low -- °F
--% Chance of Precip.
Yesterday
High -- | Low -- °F
Precip. -- in
6:02 AM 7:26 PM
Waxing Gibbous, 63% visible
Pressure 29.90 in
Visibility 4.0 miles
Clouds Clear
Windchill 42 °F
Dew Point 39 °F
Humidity 84%
Rainfall in
Snow Depth Not available.
UV 0 out of 12
Pollen 7.90 out of 12
Air Quality Not available.
Flu Activity Sporadic
METAR KRNM 270853Z AUTO 00000KT 4SM BR CLR 09/08 A2992 RMK AO2 SLP125 T00890078 58008

More Conditions Fewer Conditions

Pressure 29.90 in
Visibility 4.0 miles
Clouds Clear
Windchill 42 °F
Dew Point 39 °F
Humidity 84%
Rainfall in
Snow Depth Not available.
UV 0 out of 12
Pollen 7.90 out of 12
Air Quality Not available.
Flu Activity Sporadic
METAR KRNM 270853Z AUTO 00000KT 4SM BR CLR 09/08 A2992 RMK AO2 SLP125 T00890078 58008

More Conditions Fewer Conditions

10-Day Weather Forecast

Almanac

Astronomy

Apr. 27, 2015 Rise Set
Actual Time
Civil Twilight
Nautical Twilight
Astronomical Twilight
Moon
Length of Visible Light
Length of Day
Tomorrow will be .
, % of the Moon is Illuminated

Today's Extremes

State Highs State Lows

Community

WunderPhotos

Upload Photos

1,817,277 photos uploaded!

WunderBlogs® & News

Nearby

Air Quality

  Air Quality AQ Index Pollutant
Not available.

Snow Depth

Station Depth Elevation

Earthquake Activity

City Distance Mag. Time & Date
Minimum magnitude displayed is 2.5.

Coastal Water Temperatures

Place Temperature

Stations

Nearby Weather Stations

Station Location Temp. Windchill Dew Point Humidity Wind Precip. Elev Updated Type